Richmond, Canada
Current Conditions -  °F | °C
As of 8:00 AM on Wednesday 26 Nov 2014 (Local Time) from CYVR Reporting Station
Overcast Overcast  
Wind Chill: 39°   Ceiling: 900
Heat Index: 43°   Visibility: 15mi
Dew Point: 43°   Wind: 7mph
Humidity: 100%   Direction: 90°E
Pressure: 30.08"   Gusts: NA
Location:  49.17°N, 122.97°W
Report Text: CYVR 261600Z 09006KT 15SM FEW003 BKN009 OVC012 06/06 A3008 RMK ST1SC6SC1 VIS N 8SM SLP185
Loading
Personal Weather Stations






























Interactive Weather Map New forecast layout! Learn more

10-Day Weather Forecast

Advertisements
Track Severe Weather on mobile